createdAt,value
2019-06-25T00:00:13.370Z,23.41
2019-06-25T00:02:41.847Z,23.50
2019-06-25T00:05:10.500Z,23.49
2019-06-25T00:07:38.930Z,23.46
2019-06-25T00:10:07.773Z,23.50
2019-06-25T00:12:36.175Z,23.46
2019-06-25T00:15:05.832Z,23.37
2019-06-25T00:17:34.276Z,23.39
2019-06-25T00:20:02.985Z,23.33
2019-06-25T00:22:31.328Z,23.30
2019-06-25T00:24:59.924Z,23.28
2019-06-25T00:27:28.613Z,23.25
2019-06-25T00:29:56.903Z,23.24
2019-06-25T00:32:25.217Z,23.19
2019-06-25T00:34:53.600Z,23.15
2019-06-25T00:37:22.009Z,22.98
2019-06-25T00:39:50.478Z,22.97
2019-06-25T00:42:18.877Z,22.93
2019-06-25T00:44:47.183Z,22.93
2019-06-25T00:47:15.531Z,22.90
2019-06-25T00:49:43.938Z,22.87
2019-06-25T00:52:12.363Z,22.90
2019-06-25T00:54:41.123Z,22.82
2019-06-25T00:57:09.484Z,22.79
2019-06-25T00:59:37.943Z,22.70
2019-06-25T01:02:07.949Z,22.66
2019-06-25T01:04:36.345Z,22.66
2019-06-25T01:07:04.715Z,22.66
2019-06-25T01:09:33.047Z,22.62
2019-06-25T01:12:01.339Z,22.64
2019-06-25T01:14:29.768Z,22.56
2019-06-25T01:16:58.240Z,22.51
2019-06-25T01:19:26.648Z,22.48
2019-06-25T01:21:55.046Z,22.47
2019-06-25T01:24:23.383Z,22.32
2019-06-25T01:26:51.669Z,22.19
2019-06-25T01:29:20.151Z,22.25
2019-06-25T01:31:48.626Z,22.27
2019-06-25T01:34:17.032Z,22.29
2019-06-25T01:36:45.342Z,22.34
2019-06-25T01:39:13.645Z,22.25
2019-06-25T01:41:42.098Z,22.29
2019-06-25T01:44:12.127Z,22.26
2019-06-25T01:46:40.441Z,22.23
2019-06-25T01:49:08.826Z,22.17
2019-06-25T01:51:37.279Z,22.15
2019-06-25T01:54:05.740Z,22.14
2019-06-25T01:56:34.112Z,22.03
2019-06-25T01:59:02.428Z,21.86
2019-06-25T02:01:30.727Z,21.76
2019-06-25T02:03:59.016Z,21.74
2019-06-25T02:06:27.333Z,21.76
2019-06-25T02:08:55.703Z,21.75
2019-06-25T02:11:24.054Z,21.77
2019-06-25T02:13:52.354Z,21.68
2019-06-25T02:16:20.761Z,21.71
2019-06-25T02:18:49.151Z,21.63
2019-06-25T02:21:17.549Z,21.63
2019-06-25T02:23:45.848Z,21.57
2019-06-25T02:26:14.251Z,21.51
2019-06-25T02:28:42.630Z,21.45
2019-06-25T02:31:11.039Z,21.51
2019-06-25T02:33:39.408Z,21.33
2019-06-25T02:36:07.728Z,21.28
2019-06-25T02:38:36.095Z,21.19
2019-06-25T02:41:04.667Z,21.24
2019-06-25T02:43:33.022Z,21.20
2019-06-25T02:46:01.538Z,21.18
2019-06-25T02:48:29.830Z,21.28
2019-06-25T02:50:58.164Z,21.33
2019-06-25T02:53:26.454Z,21.19
2019-06-25T02:55:54.783Z,21.27
2019-06-25T02:58:23.137Z,21.26
2019-06-25T03:00:51.468Z,21.29
2019-06-25T03:03:19.866Z,21.31
2019-06-25T03:05:48.239Z,21.32
2019-06-25T03:08:16.652Z,21.31
2019-06-25T03:10:44.964Z,21.27
2019-06-25T03:13:13.299Z,21.19
2019-06-25T03:15:41.589Z,21.13
2019-06-25T03:18:10.207Z,21.07
2019-06-25T03:20:38.579Z,20.95
2019-06-25T03:23:07.022Z,20.99
2019-06-25T03:25:35.391Z,21.05
2019-06-25T03:28:03.723Z,21.07
2019-06-25T03:30:32.129Z,20.95
2019-06-25T03:33:00.492Z,21.04
2019-06-25T03:35:28.903Z,21.09
2019-06-25T03:37:57.287Z,21.08
2019-06-25T03:40:25.594Z,21.12
2019-06-25T03:42:53.974Z,21.14
2019-06-25T03:45:22.536Z,21.17
2019-06-25T03:47:51.768Z,21.16
2019-06-25T03:50:20.123Z,21.15
2019-06-25T03:52:48.997Z,21.05
2019-06-25T03:55:17.322Z,20.90
2019-06-25T03:57:45.704Z,21.00
2019-06-25T04:00:14.386Z,21.10
2019-06-25T04:02:42.718Z,21.13
2019-06-25T04:05:11.552Z,21.13
2019-06-25T04:07:40.013Z,21.04
2019-06-25T04:10:08.894Z,21.14
2019-06-25T04:12:37.227Z,21.21
2019-06-25T04:15:06.769Z,21.30
2019-06-25T04:17:35.161Z,21.31
2019-06-25T04:20:05.800Z,21.31
2019-06-25T04:22:34.109Z,21.35
2019-06-25T04:25:02.569Z,21.39
2019-06-25T04:27:31.025Z,21.40
2019-06-25T04:29:59.404Z,21.38
2019-06-25T04:32:33.506Z,21.41
2019-06-25T04:34:58.026Z,21.48
2019-06-25T04:37:26.328Z,21.51
2019-06-25T04:39:54.672Z,21.60
2019-06-25T04:42:22.970Z,21.63
2019-06-25T04:44:51.298Z,21.70
2019-06-25T04:47:19.670Z,21.80
2019-06-25T04:49:48.050Z,21.90
2019-06-25T04:52:16.455Z,21.89
2019-06-25T04:54:44.775Z,21.93
2019-06-25T04:57:13.076Z,22.00
2019-06-25T04:59:41.490Z,22.10
2019-06-25T05:02:09.890Z,22.23
2019-06-25T05:04:38.301Z,22.30
2019-06-25T05:07:06.615Z,22.39
2019-06-25T05:09:34.933Z,22.49
2019-06-25T05:12:03.348Z,22.60
2019-06-25T05:14:31.795Z,22.63
2019-06-25T05:17:00.761Z,22.70
2019-06-25T05:19:29.089Z,22.78
2019-06-25T05:21:57.507Z,22.88
2019-06-25T05:24:25.808Z,22.94
2019-06-25T05:26:54.122Z,23.06
2019-06-25T05:29:22.495Z,23.19
2019-06-25T05:31:50.936Z,23.25
2019-06-25T05:34:19.346Z,23.25
2019-06-25T05:36:49.348Z,23.20
2019-06-25T05:39:17.661Z,23.19
2019-06-25T05:41:46.086Z,23.23
2019-06-25T05:44:14.475Z,23.22
2019-06-25T05:46:42.867Z,23.21
2019-06-25T05:49:11.251Z,23.16
2019-06-25T05:51:39.577Z,23.16
2019-06-25T05:54:08.039Z,23.21
2019-06-25T05:56:36.445Z,23.24
2019-06-25T05:59:04.985Z,23.23
2019-06-25T06:01:33.593Z,23.20
2019-06-25T06:04:02.027Z,23.27
2019-06-25T06:06:30.528Z,23.38
2019-06-25T06:08:58.828Z,23.48
2019-06-25T06:11:27.238Z,23.61
2019-06-25T06:13:55.592Z,23.77
2019-06-25T06:16:24.088Z,23.92
2019-06-25T06:18:52.538Z,24.11
2019-06-25T06:21:21.236Z,24.21
2019-06-25T06:23:49.690Z,24.37
2019-06-25T06:26:19.055Z,24.50
2019-06-25T06:28:47.657Z,24.62
2019-06-25T06:31:17.990Z,24.82
2019-06-25T06:33:46.094Z,24.98
2019-06-25T06:36:14.390Z,25.24
2019-06-25T06:38:42.882Z,25.42
2019-06-25T06:41:11.870Z,25.51
2019-06-25T06:43:40.348Z,25.52
2019-06-25T06:46:08.791Z,25.67
2019-06-25T06:48:37.185Z,25.79
2019-06-25T06:51:05.575Z,25.91
2019-06-25T06:53:33.948Z,26.14
2019-06-25T06:56:02.664Z,26.30
2019-06-25T06:58:31.415Z,26.37
2019-06-25T07:00:59.973Z,26.32
2019-06-25T07:03:28.730Z,26.29
2019-06-25T07:05:57.156Z,26.26
2019-06-25T07:08:25.572Z,26.27
2019-06-25T07:10:53.967Z,26.37
2019-06-25T07:13:22.410Z,26.35
2019-06-25T07:15:50.815Z,26.33
2019-06-25T07:18:19.284Z,26.19
2019-06-25T07:20:47.746Z,26.16
2019-06-25T07:23:16.332Z,26.15
2019-06-25T07:25:45.514Z,26.34
2019-06-25T07:28:14.242Z,26.50
2019-06-25T07:30:43.414Z,26.58
2019-06-25T07:33:11.798Z,26.60
2019-06-25T07:35:40.219Z,26.62
2019-06-25T07:38:08.664Z,26.88
2019-06-25T07:40:37.033Z,26.99
2019-06-25T07:43:05.575Z,27.14
2019-06-25T07:45:33.967Z,27.35
2019-06-25T07:48:02.354Z,27.49
2019-06-25T07:50:30.738Z,27.58
2019-06-25T07:52:59.202Z,27.62
2019-06-25T07:55:27.643Z,27.66
2019-06-25T07:57:55.985Z,27.72
2019-06-25T08:00:24.394Z,27.67
2019-06-25T08:02:52.698Z,27.61
2019-06-25T08:05:21.173Z,27.67
2019-06-25T08:07:49.836Z,27.69
2019-06-25T08:10:18.429Z,27.67
2019-06-25T08:12:46.737Z,27.77
2019-06-25T08:15:16.960Z,27.77
2019-06-25T08:17:45.251Z,27.78
2019-06-25T08:20:14.229Z,27.88
2019-06-25T08:22:42.683Z,28.01
2019-06-25T08:25:11.207Z,28.18
2019-06-25T08:27:39.710Z,28.27
2019-06-25T08:30:10.960Z,28.26
2019-06-25T08:32:39.284Z,28.21
2019-06-25T08:35:08.349Z,28.38
2019-06-25T08:37:36.760Z,27.85
2019-06-25T08:40:19.063Z,28.59
2019-06-25T08:42:38.583Z,28.52
2019-06-25T08:45:08.926Z,28.52
2019-06-25T08:47:37.586Z,28.63
2019-06-25T08:50:07.103Z,28.80
2019-06-25T08:52:35.722Z,28.90
2019-06-25T08:55:04.811Z,29.01
2019-06-25T08:57:33.426Z,28.86
2019-06-25T09:00:01.886Z,28.80
2019-06-25T09:02:30.299Z,28.96
2019-06-25T09:05:03.208Z,29.07
2019-06-25T09:07:28.729Z,29.08
2019-06-25T09:09:57.303Z,29.24
2019-06-25T09:12:25.680Z,29.34
2019-06-25T09:14:54.053Z,29.39
2019-06-25T09:17:22.449Z,29.46
2019-06-25T09:19:50.948Z,29.58
2019-06-25T09:22:19.389Z,29.70
2019-06-25T09:24:47.743Z,29.62
2019-06-25T09:27:16.074Z,29.63
2019-06-25T09:29:45.280Z,29.71
2019-06-25T09:32:13.775Z,29.80
2019-06-25T09:34:42.127Z,29.88
2019-06-25T09:37:10.507Z,30.11
2019-06-25T09:39:41.361Z,30.28
2019-06-25T09:42:08.921Z,30.36
2019-06-25T09:44:36.183Z,30.51
2019-06-25T09:47:05.064Z,30.64
2019-06-25T09:49:35.425Z,30.72
2019-06-25T09:52:05.575Z,30.81
2019-06-25T09:54:33.973Z,30.74
2019-06-25T09:57:02.524Z,30.79
2019-06-25T09:59:31.111Z,30.86
2019-06-25T10:01:59.491Z,30.83
2019-06-25T10:04:27.888Z,30.78
2019-06-25T10:06:56.338Z,30.95
2019-06-25T10:09:24.654Z,31.11
2019-06-25T10:11:53.022Z,31.00
2019-06-25T10:14:21.407Z,30.86
2019-06-25T10:16:49.863Z,30.95
2019-06-25T10:19:18.354Z,31.06
2019-06-25T10:21:46.729Z,31.34
2019-06-25T10:24:15.058Z,31.66
2019-06-25T10:26:43.423Z,31.86
2019-06-25T10:29:11.832Z,32.12
2019-06-25T10:31:40.217Z,32.15
2019-06-25T10:34:08.700Z,32.16
2019-06-25T10:36:36.996Z,32.22
2019-06-25T10:39:07.166Z,32.18
2019-06-25T10:41:35.486Z,32.28
2019-06-25T10:44:04.364Z,32.59
2019-06-25T10:46:32.736Z,32.83
2019-06-25T10:49:01.148Z,33.05
2019-06-25T10:51:29.718Z,33.15
2019-06-25T10:53:58.051Z,33.42
2019-06-25T10:56:30.816Z,33.43
2019-06-25T10:58:56.502Z,33.35
2019-06-25T11:01:24.913Z,33.37
2019-06-25T11:03:53.225Z,33.31
2019-06-25T11:06:21.603Z,33.53
2019-06-25T11:08:49.974Z,33.67
2019-06-25T11:11:18.430Z,33.70
2019-06-25T11:13:46.791Z,33.86
2019-06-25T11:16:15.122Z,33.97
2019-06-25T11:18:43.480Z,33.83
2019-06-25T11:21:11.868Z,33.68
2019-06-25T11:23:40.236Z,33.83
2019-06-25T11:26:22.091Z,34.02
2019-06-25T11:28:38.642Z,34.25
2019-06-25T11:31:07.055Z,34.47
2019-06-25T11:33:35.525Z,34.58
2019-06-25T11:36:19.713Z,34.70
2019-06-25T11:38:33.998Z,34.52
2019-06-25T11:41:02.347Z,34.24
2019-06-25T11:43:43.714Z,34.02
2019-06-25T11:46:00.853Z,33.94
2019-06-25T11:48:29.155Z,34.09
2019-06-25T11:50:57.565Z,33.90
2019-06-25T11:53:26.014Z,33.79
2019-06-25T11:55:54.344Z,33.90
2019-06-25T11:58:22.640Z,34.06
2019-06-25T12:00:51.018Z,34.20
2019-06-25T12:03:19.398Z,34.11
2019-06-25T12:05:47.778Z,34.26
2019-06-25T12:08:16.428Z,34.28
2019-06-25T12:10:44.958Z,34.45
2019-06-25T12:13:13.328Z,34.64
2019-06-25T12:15:41.645Z,34.63
2019-06-25T12:18:10.043Z,34.39
2019-06-25T12:20:38.452Z,34.44
2019-06-25T12:23:06.880Z,34.63
2019-06-25T12:25:35.293Z,34.57
2019-06-25T12:28:03.638Z,34.60
2019-06-25T12:30:31.934Z,34.71
2019-06-25T12:33:00.358Z,35.05
2019-06-25T12:35:28.725Z,35.24
2019-06-25T12:37:57.210Z,35.44
2019-06-25T12:40:25.495Z,35.68
2019-06-25T12:42:53.861Z,35.86
2019-06-25T12:45:22.320Z,35.99
2019-06-25T12:47:50.918Z,36.28
2019-06-25T12:50:20.374Z,36.48
2019-06-25T12:52:48.861Z,36.57
2019-06-25T12:55:17.209Z,36.32
2019-06-25T12:57:45.545Z,36.45
2019-06-25T13:00:14.553Z,36.78
2019-06-25T13:02:43.111Z,36.80
2019-06-25T13:05:11.978Z,36.83
2019-06-25T13:07:40.275Z,36.99
2019-06-25T13:10:09.457Z,37.01
2019-06-25T13:12:37.875Z,37.12
2019-06-25T13:15:07.944Z,37.28
2019-06-25T13:17:36.273Z,37.30
2019-06-25T13:20:06.013Z,37.08
2019-06-25T13:22:34.492Z,36.95
2019-06-25T13:25:02.871Z,36.79
2019-06-25T13:27:31.204Z,36.65
2019-06-25T13:29:59.566Z,36.64
2019-06-25T13:32:27.967Z,36.86
2019-06-25T13:34:56.496Z,37.08
2019-06-25T13:37:38.176Z,37.31
2019-06-25T13:39:55.570Z,37.47
2019-06-25T13:42:23.854Z,37.61
2019-06-25T13:44:52.213Z,37.47
2019-06-25T13:47:20.517Z,37.76
2019-06-25T13:49:48.835Z,37.47
2019-06-25T13:52:17.150Z,37.08
2019-06-25T13:54:45.455Z,37.01
2019-06-25T13:57:13.751Z,37.20
2019-06-25T13:59:42.120Z,37.28
2019-06-25T14:02:10.495Z,37.56
2019-06-25T14:04:38.824Z,37.55
2019-06-25T14:07:07.225Z,37.23
2019-06-25T14:09:35.692Z,36.83
2019-06-25T14:12:04.061Z,36.52
2019-06-25T14:14:32.451Z,36.31
2019-06-25T14:17:00.840Z,36.13
2019-06-25T14:19:29.343Z,35.98
2019-06-25T14:21:57.636Z,36.12
2019-06-25T14:24:25.966Z,36.27
2019-06-25T14:26:54.598Z,36.33
2019-06-25T14:29:22.976Z,36.40
2019-06-25T14:31:51.416Z,36.41
2019-06-25T14:34:19.844Z,36.41
2019-06-25T14:36:48.272Z,36.49
2019-06-25T14:39:16.673Z,36.34
2019-06-25T14:41:44.967Z,36.34
2019-06-25T14:44:13.947Z,36.39
2019-06-25T14:46:43.463Z,36.31
2019-06-25T14:49:12.090Z,36.14
2019-06-25T14:51:40.781Z,36.01
2019-06-25T14:54:09.281Z,35.84
2019-06-25T14:56:37.637Z,35.60
2019-06-25T14:59:05.923Z,35.41
2019-06-25T15:01:34.326Z,35.29
2019-06-25T15:04:03.536Z,35.25
2019-06-25T15:06:32.000Z,35.25
2019-06-25T15:09:00.296Z,35.24
2019-06-25T15:11:28.778Z,35.16
2019-06-25T15:13:57.058Z,35.18
2019-06-25T15:16:25.386Z,35.25
2019-06-25T15:18:53.692Z,35.25
2019-06-25T15:21:24.705Z,35.26
2019-06-25T15:23:52.118Z,35.22
2019-06-25T15:26:20.592Z,35.21
2019-06-25T15:28:49.390Z,35.27
2019-06-25T15:31:18.013Z,35.19
2019-06-25T15:33:46.281Z,35.05
2019-06-25T15:36:14.606Z,34.96
2019-06-25T15:38:47.158Z,34.98
2019-06-25T15:41:13.157Z,34.80
2019-06-25T15:43:41.460Z,34.94
2019-06-25T15:46:09.844Z,34.86
2019-06-25T15:48:38.230Z,34.81
2019-06-25T15:51:06.655Z,34.73
2019-06-25T15:53:34.896Z,34.73
2019-06-25T15:56:03.303Z,34.73
2019-06-25T15:58:31.580Z,34.71
2019-06-25T16:00:59.925Z,34.69
2019-06-25T16:03:28.246Z,34.68
2019-06-25T16:05:56.646Z,34.68
2019-06-25T16:08:25.086Z,34.67
2019-06-25T16:10:53.385Z,34.65
2019-06-25T16:13:21.810Z,34.64
2019-06-25T16:15:50.118Z,34.61
2019-06-25T16:18:18.416Z,34.60
2019-06-25T16:20:46.789Z,34.61
2019-06-25T16:23:15.132Z,34.59
2019-06-25T16:25:43.645Z,34.54
2019-06-25T16:28:12.001Z,34.51
2019-06-25T16:30:40.294Z,34.51
2019-06-25T16:33:08.729Z,34.54
2019-06-25T16:35:37.257Z,34.55
2019-06-25T16:38:05.664Z,34.55
2019-06-25T16:40:34.064Z,34.55
2019-06-25T16:43:02.400Z,34.55
2019-06-25T16:45:30.695Z,34.54
2019-06-25T16:47:59.023Z,34.49
2019-06-25T16:50:27.415Z,34.39
2019-06-25T16:52:55.781Z,34.34
2019-06-25T16:55:24.231Z,34.29
2019-06-25T16:57:52.640Z,34.28
2019-06-25T17:00:21.076Z,34.25
2019-06-25T17:02:54.290Z,34.23
2019-06-25T17:05:31.214Z,34.29
2019-06-25T17:07:49.784Z,34.26
2019-06-25T17:10:19.373Z,34.15
2019-06-25T17:12:47.856Z,34.06
2019-06-25T17:15:16.203Z,33.99
2019-06-25T17:17:44.577Z,33.93
2019-06-25T17:20:13.861Z,33.87
2019-06-25T17:22:42.219Z,33.83
2019-06-25T17:25:10.733Z,33.79
2019-06-25T17:27:49.177Z,33.78
2019-06-25T17:30:09.368Z,33.73
2019-06-25T17:32:38.012Z,33.69
2019-06-25T17:35:09.510Z,33.65
2019-06-25T17:37:37.808Z,33.63
2019-06-25T17:40:07.778Z,33.59
2019-06-25T17:42:36.118Z,33.57
2019-06-25T17:45:07.048Z,33.56
2019-06-25T17:47:35.407Z,33.54
2019-06-25T17:50:05.808Z,33.52
2019-06-25T17:52:34.159Z,33.51
2019-06-25T17:55:02.608Z,33.49
2019-06-25T17:57:32.457Z,33.42
2019-06-25T18:00:00.805Z,33.38
2019-06-25T18:02:29.105Z,33.34
2019-06-25T18:04:57.580Z,33.32
2019-06-25T18:07:25.981Z,33.29
2019-06-25T18:10:07.085Z,33.26
2019-06-25T18:12:26.152Z,33.26
2019-06-25T18:14:54.575Z,33.21
2019-06-25T18:17:24.936Z,33.19
2019-06-25T18:19:53.402Z,33.11
2019-06-25T18:22:21.763Z,33.04
2019-06-25T18:24:50.194Z,33.01
2019-06-25T18:27:18.636Z,33.01
2019-06-25T18:29:47.058Z,33.01
2019-06-25T18:32:15.589Z,32.99
2019-06-25T18:34:43.985Z,32.92
2019-06-25T18:37:12.499Z,32.88
2019-06-25T18:39:40.909Z,32.85
2019-06-25T18:42:11.917Z,32.82
2019-06-25T18:44:42.836Z,32.81
2019-06-25T18:47:11.249Z,32.72
2019-06-25T18:49:39.631Z,32.62
2019-06-25T18:52:08.274Z,32.54
2019-06-25T18:54:36.647Z,32.47
2019-06-25T18:57:05.123Z,32.43
2019-06-25T18:59:37.493Z,32.39
2019-06-25T19:02:07.382Z,32.37
2019-06-25T19:04:35.888Z,32.30
2019-06-25T19:07:04.424Z,32.24
2019-06-25T19:09:32.888Z,32.20
2019-06-25T19:12:01.405Z,32.13
2019-06-25T19:14:32.223Z,32.11
2019-06-25T19:17:00.049Z,32.05
2019-06-25T19:19:28.425Z,32.02
2019-06-25T19:21:56.897Z,31.97
2019-06-25T19:24:25.399Z,31.89
2019-06-25T19:26:53.717Z,31.80
2019-06-25T19:29:22.051Z,31.74
2019-06-25T19:31:50.404Z,31.66
2019-06-25T19:34:18.761Z,31.58
2019-06-25T19:36:47.206Z,31.53
2019-06-25T19:39:17.147Z,31.48
2019-06-25T19:41:45.675Z,31.42
2019-06-25T19:44:14.157Z,31.37
2019-06-25T19:46:42.604Z,31.30
2019-06-25T19:49:11.071Z,31.25
2019-06-25T19:51:39.623Z,31.19
2019-06-25T19:54:08.053Z,29.77
2019-06-25T19:56:36.406Z,28.89
2019-06-25T19:59:04.858Z,28.32
2019-06-25T20:01:33.228Z,27.91
2019-06-25T20:04:01.655Z,27.69
2019-06-25T20:06:30.040Z,27.48
2019-06-25T20:08:58.450Z,27.33
2019-06-25T20:11:26.855Z,27.19
2019-06-25T20:13:55.210Z,27.09
2019-06-25T20:16:23.627Z,27.03
2019-06-25T20:18:52.019Z,26.92
2019-06-25T20:21:20.433Z,26.85
2019-06-25T20:23:48.793Z,26.68
2019-06-25T20:26:17.318Z,26.53
2019-06-25T20:28:45.647Z,26.35
2019-06-25T20:31:13.969Z,26.24
2019-06-25T20:33:42.431Z,26.15
2019-06-25T20:36:10.935Z,26.10
2019-06-25T20:38:39.463Z,26.04
2019-06-25T20:41:07.857Z,25.96
2019-06-25T20:43:36.190Z,25.98
2019-06-25T20:46:05.364Z,26.00
2019-06-25T20:48:33.770Z,26.00
2019-06-25T20:51:02.186Z,26.02
2019-06-25T20:53:32.645Z,26.00
2019-06-25T20:56:00.684Z,26.01
2019-06-25T20:58:29.014Z,26.03
2019-06-25T21:00:57.415Z,26.01
2019-06-25T21:03:25.784Z,26.02
2019-06-25T21:05:54.696Z,25.99
2019-06-25T21:08:23.024Z,25.97
2019-06-25T21:10:51.718Z,25.97
2019-06-25T21:13:20.033Z,26.04
2019-06-25T21:15:48.441Z,26.03
2019-06-25T21:18:16.736Z,25.98
2019-06-25T21:20:45.245Z,25.98
2019-06-25T21:23:13.544Z,26.02
2019-06-25T21:25:42.151Z,26.03
2019-06-25T21:28:10.548Z,26.03
2019-06-25T21:30:39.332Z,25.98
2019-06-25T21:33:07.714Z,25.95
2019-06-25T21:35:36.061Z,25.90
2019-06-25T21:38:04.501Z,25.92
2019-06-25T21:40:32.893Z,25.90
2019-06-25T21:43:01.325Z,25.87
2019-06-25T21:45:29.734Z,25.87
2019-06-25T21:47:58.039Z,25.91
2019-06-25T21:50:26.456Z,25.89
2019-06-25T21:52:54.754Z,25.87
2019-06-25T21:55:23.377Z,25.85
2019-06-25T21:57:51.680Z,25.84
2019-06-25T22:00:21.796Z,25.87
2019-06-25T22:02:56.992Z,25.87
2019-06-25T22:05:25.391Z,25.85
2019-06-25T22:07:53.700Z,25.51
2019-06-25T22:10:22.655Z,25.72
2019-06-25T22:12:51.048Z,25.76
2019-06-25T22:15:19.420Z,25.79
2019-06-25T22:17:47.845Z,25.86
2019-06-25T22:20:17.791Z,25.85
2019-06-25T22:22:46.162Z,25.84
2019-06-25T22:25:15.133Z,25.83
2019-06-25T22:27:43.540Z,25.86
2019-06-25T22:30:12.367Z,25.82
2019-06-25T22:32:40.782Z,25.74
2019-06-25T22:35:09.331Z,25.70
2019-06-25T22:37:37.722Z,25.72
2019-06-25T22:40:09.366Z,25.72
2019-06-25T22:42:38.077Z,25.73
2019-06-25T22:45:07.092Z,25.72
2019-06-25T22:47:35.475Z,25.72
2019-06-25T22:50:05.418Z,25.70
2019-06-25T22:52:34.187Z,25.68
2019-06-25T22:55:02.559Z,25.67
2019-06-25T22:57:31.053Z,25.64
2019-06-25T22:59:59.363Z,25.61
2019-06-25T23:02:27.693Z,25.53
2019-06-25T23:04:56.013Z,25.49
2019-06-25T23:07:24.435Z,25.51
2019-06-25T23:09:52.754Z,25.59
2019-06-25T23:12:21.528Z,25.67
2019-06-25T23:14:49.819Z,25.74
2019-06-25T23:17:18.901Z,25.76
2019-06-25T23:19:47.240Z,25.75
2019-06-25T23:22:15.635Z,25.70
2019-06-25T23:24:43.951Z,25.67
2019-06-25T23:27:12.333Z,25.68
2019-06-25T23:29:40.752Z,25.63
2019-06-25T23:32:09.055Z,25.65
2019-06-25T23:34:37.499Z,25.63
2019-06-25T23:37:06.055Z,25.58
2019-06-25T23:39:34.440Z,25.57
2019-06-25T23:42:02.789Z,25.57
2019-06-25T23:44:31.212Z,25.53
2019-06-25T23:46:59.596Z,25.51
2019-06-25T23:49:28.036Z,25.49
2019-06-25T23:51:56.599Z,25.42
2019-06-25T23:54:24.975Z,25.43
2019-06-25T23:56:53.236Z,25.38
2019-06-25T23:59:21.910Z,25.28
